Track Кудряшов Максим

Time Latitude Longitude Accuracy (66% radius in meters) Altitude (meters) Speed (km/hour) Bearing (degrees) Battery (%) GPS flag
08:06:06 57.204776 60.121490 35.375999450684 327.09143066406 0 0 50 1 delete
08:05:56 57.204792 60.121468 16.079999923706 327.40905761719 0 0 50 1 delete
08:05:45 57.204795 60.121465 18.224000930786 327.9580078125 0 0 50 1 delete
08:05:34 57.204795 60.121465 15.00800037384 327.37768554688 0 0 50 1 delete
08:05:24 57.204795 60.121465 17.152000427246 327.365234375 0 0 50 1 delete
08:05:13 57.204796 60.121464 17.152000427246 327.35308837891 2.2000000476837 325.10000610352 50 1 delete
08:05:02 57.204780 60.121483 22.512001037598 327.55590820312 0 0 50 1 delete
08:04:51 57.204780 60.121483 20.368000030518 327.50549316406 0 0 50 1 delete
08:04:41 57.204838 60.121519 27.872001647949 327.13293457031 1.3600000143051 237.80000305176 50 1 delete
08:04:30 57.204871 60.121551 32.159999847412 326.73815917969 0.41999998688698 6 50 1 delete
08:04:19 57.204847 60.121545 21.440000534058 327.22869873047 0 0 50 1 delete
08:04:09 57.204862 60.121499 9.6480007171631 327.93334960938 2.1800000667572 113.19999694824 50 1 delete
08:03:58 57.204842 60.121456 9.6480007171631 326.5595703125 1.6699999570847 56.200000762939 50 1 delete
08:03:51 57.204769 60.121331 9.6480007171631 325.81555175781 1.1799999475479 44.099998474121 50 1 delete
08:03:47 57.204743 60.121272 9.6480007171631 325.72570800781 1.210000038147 51.099998474121 50 1 delete
08:03:42 57.204712 60.121185 9.6480007171631 324.15765380859 1.9900000095367 50 50 1 delete
08:03:36 57.204695 60.121020 9.6480007171631 328.24780273438 1.2400000095367 55.400001525879 50 1 delete
08:03:30 57.204629 60.120872 9.6480007171631 325.80029296875 1.5199999809265 48 50 1 delete
08:03:25 57.204576 60.120712 9.6480007171631 336.17761230469 0 0 50 1 delete
08:03:14 57.204578 60.120695 10.720000267029 335.26379394531 0 0 50 1 delete
08:03:03 57.204587 60.120662 9.6480007171631 335.69152832031 0.68999999761581 214.89999389648 50 1 delete
08:02:53 57.204594 60.120665 10.720000267029 335.46154785156 0 0 50 1 delete
08:02:42 57.204602 60.120681 9.6480007171631 332.71252441406 0 0 50 1 delete
08:02:20 57.204540 60.120726 10.720000267029 326.27795410156 0 0 50 1 delete
08:02:09 57.204560 60.120778 11.791999816895 323.35864257812 0 0 50 1 delete
08:01:25 57.204568 60.120770 11.791999816895 324.30169677734 0 0 50 1 delete
08:01:14 57.204567 60.120770 4.2880001068115 324.12457275391 0 0 50 1 delete
08:01:03 57.204563 60.120757 5.3600001335144 321.46038818359 0 0 50 1 delete
08:00:54 57.204552 60.120752 3.2160000801086 315.66394042969 2.0299999713898 79.199996948242 50 1 delete
08:00:52 57.204538 60.120710 3.2160000801086 315.39453125 1.6499999761581 55.200000762939 50 1 delete
08:00:41 57.204532 60.120727 9.6480007171631 316.93823242188 0 0 54 1 delete
08:00:30 57.204507 60.120766 9.6480007171631 314.87854003906 0 0 54 1 delete
08:00:24 57.204463 60.120671 9.6480007171631 312.92108154297 0.60000002384186 56.900001525879 54 1 delete
08:00:20 57.204439 60.120581 3.2160000801086 313.56665039062 3.1500000953674 69.199996948242 54 1 delete
08:00:18 57.204426 60.120517 4.2880001068115 313.04986572266 4.0300002098083 80 54 1 delete
08:00:15 57.204429 60.120327 3.2160000801086 314.83642578125 4.1599998474121 98.300003051758 54 1 delete
08:00:12 57.204447 60.120108 4.2880001068115 317.85339355469 3.0299999713898 87.400001525879 54 1 delete
08:00:09 57.204409 60.119924 4.2880001068115 319.25982666016 3.7400000095367 63.5 54 1 delete
08:00:07 57.204334 60.119761 5.3600001335144 319.73107910156 3.2699999809265 69.099998474121 54 1 delete
08:00:04 57.204287 60.119594 5.3600001335144 321.88226318359 3.1500000953674 66 54 1 delete
08:00:01 57.204217 60.119443 5.3600001335144 321.29602050781 2.5799999237061 59.799999237061 54 1 delete
07:59:58 57.204154 60.119296 5.3600001335144 320.10546875 1.0800000429153 58.700000762939 54 1 delete
07:59:55 57.204089 60.119152 5.3600001335144 320.20251464844 2.3699998855591 47.599998474121 54 1 delete
07:59:52 57.204013 60.119056 4.2880001068115 319.70526123047 1.8300000429153 40.099998474121 54 1 delete
07:59:48 57.203921 60.118917 4.2880001068115 320.19299316406 1.960000038147 49.099998474121 54 1 delete
07:59:47 57.203899 60.118891 4.2880001068115 318.42907714844 1.0800000429153 59.700000762939 54 1 delete
07:59:44 57.203851 60.118788 5.3600001335144 316.97937011719 2.0799999237061 70.400001525879 54 1 delete
07:59:39 57.203800 60.118635 5.3600001335144 313.76428222656 2.289999961853 96.800003051758 54 1 delete
07:59:36 57.203814 60.118443 4.2880001068115 315.30767822266 0.93000000715256 111.09999847412 54 1 delete
07:59:35 57.203816 60.118414 4.2880001068115 315.15441894531 1.2200000286102 117.59999847412 54 1 delete